Time;durP1;ratioP1;P1;durP2;ratioP2;P2;SDS_P1;SDS_P2;PMS_P1;PMS_P2;Temp;Humidity;BMP_temperature;BMP_pressure;BME280_temperature;BME280_humidity;BME280_pressure;Samples;Min_cycle;Max_cycle;Signal;HPM_P1;HPM_P2
2021/01/08 00:02:06;;;;;;;35.22;14.05;;;;;;;0.35;90.92;99475.75;5075667;28;20040;-68
2021/01/08 00:04:36;;;;;;;35.33;13.95;;;;;;;0.31;91.04;99473.09;5075268;28;20045;-68
2021/01/08 00:07:03;;;;;;;33.97;13.88;;;;;;;0.36;91.06;99471.59;5075292;28;20124;-68
2021/01/08 00:09:31;;;;;;;35.20;13.50;;;;;;;0.40;90.78;99464.22;5075063;28;20047;-68
2021/01/08 00:11:59;;;;;;;30.50;13.32;;;;;;;0.29;90.87;99475.50;5090858;28;20106;-68
2021/01/08 00:14:27;;;;;;;33.20;13.40;;;;;;;0.18;90.76;99473.41;5075376;28;20046;-68
2021/01/08 00:16:54;;;;;;;28.92;13.27;;;;;;;0.21;91.02;99461.00;5075071;28;20044;-68
2021/01/08 00:19:24;;;;;;;38.28;13.43;;;;;;;0.25;90.85;99462.81;5075016;28;20056;-68
2021/01/08 00:21:52;;;;;;;23.67;10.48;;;;;;;0.23;90.92;99465.28;5075004;28;20049;-68
2021/01/08 00:24:20;;;;;;;31.15;13.70;;;;;;;0.25;91.27;99462.81;5075182;28;20091;-68
2021/01/08 00:26:48;;;;;;;35.03;13.88;;;;;;;0.35;91.14;99462.34;5074915;28;20036;-68
2021/01/08 00:29:17;;;;;;;37.85;14.40;;;;;;;0.48;91.25;99457.81;5075008;28;20040;-68
2021/01/08 00:31:48;;;;;;;34.22;13.25;;;;;;;0.50;91.33;99457.88;5074758;28;20054;-68
2021/01/08 00:34:18;;;;;;;35.85;13.52;;;;;;;0.56;91.32;99448.91;5074740;28;20056;-68
2021/01/08 00:36:51;;;;;;;41.88;13.80;;;;;;;0.62;91.47;99445.75;5074666;28;20058;-68
2021/01/08 00:39:21;;;;;;;37.40;15.00;;;;;;;0.62;91.07;99451.59;5074671;28;20051;-68
2021/01/08 00:41:48;;;;;;;36.35;14.43;;;;;;;0.55;91.10;99428.78;5074540;28;20555;-68
2021/01/08 00:44:16;;;;;;;34.78;13.95;;;;;;;0.67;90.90;99454.31;5074522;28;20043;-68
2021/01/08 00:46:46;;;;;;;38.15;14.63;;;;;;;0.52;91.12;99409.44;5073184;28;20567;-68
2021/01/08 00:49:16;;;;;;;35.05;14.73;;;;;;;0.74;90.86;99441.16;5074697;28;20143;-68
2021/01/08 00:51:44;;;;;;;44.40;16.42;;;;;;;0.78;91.02;99440.44;5074661;28;20051;-68
2021/01/08 00:54:13;;;;;;;40.22;16.50;;;;;;;0.80;91.15;99446.38;5073155;28;20068;-68
2021/01/08 00:56:49;;;;;;;39.72;15.73;;;;;;;0.75;90.92;99431.94;5074279;28;20076;-68
2021/01/08 00:59:27;;;;;;;39.55;14.73;;;;;;;0.77;91.22;99436.22;5074590;28;20114;-68
2021/01/08 01:01:55;;;;;;;45.28;16.05;;;;;;;0.76;91.05;99433.66;5074349;28;20059;-69
2021/01/08 01:04:23;;;;;;;40.60;15.95;;;;;;;0.78;91.30;99432.91;5074057;28;20048;-68
2021/01/08 01:06:51;;;;;;;38.13;15.68;;;;;;;0.76;91.19;99429.50;5074109;28;20037;-68
2021/01/08 01:09:20;;;;;;;40.97;16.47;;;;;;;0.77;91.23;99431.19;5074297;28;20094;-68
2021/01/08 01:11:48;;;;;;;43.47;15.30;;;;;;;0.78;90.74;99432.03;5074393;28;20068;-69
2021/01/08 01:14:17;;;;;;;43.63;16.40;;;;;;;0.82;91.01;99442.25;5074178;28;20490;-68
2021/01/08 01:16:45;;;;;;;42.03;16.30;;;;;;;0.85;90.88;99429.78;5073985;28;20048;-69
2021/01/08 01:19:13;;;;;;;43.80;17.48;;;;;;;0.87;91.26;99435.72;5074119;28;20131;-69
2021/01/08 01:21:41;;;;;;;39.88;15.90;;;;;;;0.88;91.04;99439.94;5073888;28;20048;-69
2021/01/08 01:24:09;;;;;;;37.47;14.40;;;;;;;0.90;91.20;99448.38;5073796;28;20490;-68
2021/01/08 01:26:38;;;;;;;45.95;16.67;;;;;;;0.92;90.81;99441.75;5074094;28;20127;-69
2021/01/08 01:29:06;;;;;;;45.95;17.23;;;;;;;0.89;91.10;99444.16;5073622;28;20041;-69
2021/01/08 01:31:35;;;;;;;45.03;16.42;;;;;;;0.88;90.91;99450.00;5073645;28;20040;-69
2021/01/08 01:34:05;;;;;;;45.47;16.52;;;;;;;0.86;90.61;99441.56;5073668;28;20056;-69
2021/01/08 01:36:32;;;;;;;;;;;;;;;0.85;90.84;99444.88;5074174;28;20048;-69
2021/01/08 01:39:00;;;;;;;40.00;15.77;;;;;;;0.85;90.78;99444.88;5073836;28;19927;-69
2021/01/08 01:41:28;;;;;;;43.58;16.15;;;;;;;0.88;91.32;99444.97;5073640;28;20556;-69
2021/01/08 01:43:57;;;;;;;40.47;16.40;;;;;;;0.87;90.95;99449.94;5073606;28;20120;-69
2021/01/08 01:46:25;;;;;;;45.08;17.55;;;;;;;0.89;90.96;99446.66;5073616;28;20053;-69
2021/01/08 01:48:53;;;;;;;35.03;15.15;;;;;;;0.86;91.02;99445.72;5073790;28;20106;-69
2021/01/08 01:51:22;;;;;;;38.03;14.98;;;;;;;0.85;90.72;99444.88;5073712;28;20119;-68
2021/01/08 01:53:50;;;;;;;35.53;15.20;;;;;;;0.86;91.06;99451.59;5073852;28;20044;-69
2021/01/08 01:56:19;;;;;;;36.00;15.40;;;;;;;0.86;90.82;99451.59;5073778;28;20036;-69
2021/01/08 01:58:46;;;;;;;37.78;15.68;;;;;;;0.93;90.65;99457.69;5073217;28;20048;-69
2021/01/08 02:01:15;;;;;;;37.65;16.65;;;;;;;0.94;91.12;99457.72;5073381;28;20126;-69
2021/01/08 02:03:48;;;;;;;42.60;16.20;;;;;;;0.92;90.45;99449.28;5073435;28;20052;-69
2021/01/08 02:06:20;;;;;;;31.77;14.13;;;;;;;0.85;91.22;99449.03;5073434;28;20064;-69
2021/01/08 02:08:53;;;;;;;35.05;13.63;;;;;;;0.86;91.03;99451.59;5073459;28;20048;-69
2021/01/08 02:11:26;;;;;;;35.05;14.43;;;;;;;0.85;90.84;99449.88;5073332;28;20041;-68
2021/01/08 02:14:00;;;;;;;34.90;14.02;;;;;;;0.82;90.53;99449.78;5073391;28;20048;-69
2021/01/08 02:16:30;;;;;;;39.55;14.52;;;;;;;0.83;90.38;99443.97;5073314;28;20141;-69
2021/01/08 02:19:00;;;;;;;36.88;15.70;;;;;;;0.84;90.90;99448.16;5073347;28;20044;-69
2021/01/08 02:21:33;;;;;;;34.58;13.75;;;;;;;0.88;90.64;99447.47;5073226;28;20136;-68
2021/01/08 02:24:08;;;;;;;29.38;13.07;;;;;;;0.91;90.47;99439.19;5073320;28;20491;-68
2021/01/08 02:26:40;;;;;;;34.25;13.90;;;;;;;0.91;90.66;99445.06;5073207;28;20102;-68
2021/01/08 02:29:10;;;;;;;35.13;13.43;;;;;;;0.89;90.71;99444.16;5073267;28;20490;-69
2021/01/08 02:31:38;;;;;;;34.50;14.93;;;;;;;0.88;90.42;99444.13;5073259;28;20044;-68
2021/01/08 02:34:07;;;;;;;34.83;14.77;;;;;;;0.89;90.55;99445.84;5073100;28;20436;-69
2021/01/08 02:36:37;;;;;;;29.63;12.98;;;;;;;0.91;90.23;99442.53;5073309;28;20386;-68
2021/01/08 02:39:07;;;;;;;36.25;14.02;;;;;;;0.94;90.48;99437.63;5073143;28;20064;-68
2021/01/08 02:41:36;;;;;;;30.23;12.32;;;;;;;0.87;90.58;99443.25;5073047;28;20401;-69
2021/01/08 02:44:06;;;;;;;;;;;;;;;0.77;90.79;99446.25;5073735;28;20052;-69
2021/01/08 02:46:34;;;;;;;19.90;9.80;;;;;;;0.85;90.53;99444.00;5072966;28;19924;-68
2021/01/08 02:49:02;;;;;;;33.70;13.68;;;;;;;0.91;90.41;99440.03;5088586;28;20044;-69
2021/01/08 02:51:30;;;;;;;32.30;14.52;;;;;;;0.91;90.55;99434.19;5072802;28;20048;-68
2021/01/08 02:53:59;;;;;;;30.77;13.43;;;;;;;-0.07;90.37;99279.41;5071738;28;20048;-68
2021/01/08 02:56:34;;;;;;;31.20;13.82;;;;;;;0.87;90.05;99437.38;5073442;28;20063;-68
2021/01/08 02:59:03;;;;;;;30.52;13.23;;;;;;;-0.18;89.90;99262.28;5072907;28;20052;-68
2021/01/08 03:01:33;;;;;;;24.15;9.98;;;;;;;0.87;90.43;99433.22;5073234;28;20075;-68
2021/01/08 03:04:02;;;;;;;30.95;13.05;;;;;;;0.73;89.99;99414.31;5072969;28;20041;-68
2021/01/08 03:06:31;;;;;;;32.08;14.13;;;;;;;0.87;89.98;99423.16;5072821;28;20044;-68
2021/01/08 03:08:59;;;;;;;35.17;15.43;;;;;;;0.88;90.36;99434.94;5072885;28;20041;-68
2021/01/08 03:11:27;;;;;;;35.30;14.43;;;;;;;0.88;90.66;99439.94;5076261;28;20090;-69
2021/01/08 03:13:57;;;;;;;33.50;14.02;;;;;;;0.90;90.35;99438.34;5076387;28;20052;-68
2021/01/08 03:16:26;;;;;;;35.47;13.80;;;;;;;0.88;90.24;99439.94;5075661;28;20041;-68
2021/01/08 03:18:55;;;;;;;34.10;13.98;;;;;;;0.84;90.37;99430.59;5076217;28;20045;-68
2021/01/08 03:21:23;;;;;;;35.30;15.30;;;;;;;0.87;90.17;99432.34;5076130;28;20371;-69
2021/01/08 03:23:50;;;;;;;36.63;14.23;;;;;;;0.83;89.92;99436.44;5076355;28;20057;-68
2021/01/08 03:26:19;;;;;;;28.92;11.82;;;;;;;0.86;90.40;99438.19;5076054;28;20043;-68
2021/01/08 03:28:47;;;;;;;38.33;14.52;;;;;;;0.86;90.38;99439.06;5076345;28;20525;-68
2021/01/08 03:31:15;;;;;;;34.35;14.57;;;;;;;0.92;89.84;99433.34;5076091;28;20044;-68
2021/01/08 03:33:43;;;;;;;40.50;15.80;;;;;;;0.94;89.73;99434.25;5075975;28;20128;-68
2021/01/08 03:36:12;;;;;;;38.08;14.32;;;;;;;0.91;90.13;99437.50;5076048;28;20529;-68
2021/01/08 03:38:40;;;;;;;36.88;15.38;;;;;;;0.94;90.19;99431.75;5075839;28;20044;-68
2021/01/08 03:41:08;;;;;;;40.10;15.50;;;;;;;0.95;90.05;99430.94;5075752;28;20099;-68
2021/01/08 03:43:35;;;;;;;42.22;15.95;;;;;;;0.96;89.82;99428.47;5075757;28;20056;-68
2021/01/08 03:46:03;;;;;;;39.63;15.88;;;;;;;0.97;89.60;99430.19;5075527;28;20571;-68
2021/01/08 03:48:31;;;;;;;41.45;16.05;;;;;;;0.96;90.13;99433.50;5075716;28;20060;-68
2021/01/08 03:51:01;;;;;;;36.95;16.08;;;;;;;0.96;89.53;99437.69;5075569;28;20040;-68
2021/01/08 03:53:29;;;;;;;47.88;18.40;;;;;;;0.97;89.48;99430.19;5075593;28;20079;-68
2021/01/08 03:55:57;;;;;;;44.28;17.15;;;;;;;0.96;89.36;99432.69;5075523;28;20041;-68
2021/01/08 03:58:24;;;;;;;42.60;16.05;;;;;;;0.57;90.01;99366.91;5074248;28;20135;-68
2021/01/08 04:00:52;;;;;;;40.50;16.13;;;;;;;0.96;89.83;99428.47;5075444;28;20067;-68
2021/01/08 04:03:20;;;;;;;45.30;16.92;;;;;;;0.96;89.95;99432.69;5075621;28;20111;-68
2021/01/08 04:05:48;;;;;;;48.05;16.55;;;;;;;0.93;89.59;99433.44;5075328;28;20047;-68
2021/01/08 04:08:16;;;;;;;38.28;17.10;;;;;;;0.96;90.21;99433.50;5075221;28;20102;-68
2021/01/08 04:10:46;;;;;;;42.28;16.95;;;;;;;0.98;89.63;99431.06;5075200;28;20084;-68
2021/01/08 04:13:14;;;;;;;44.08;16.25;;;;;;;0.95;90.14;99431.81;5075120;28;20049;-69
2021/01/08 04:15:42;;;;;;;35.00;14.63;;;;;;;0.95;89.50;99424.28;5075096;28;20043;-68
2021/01/08 04:18:10;;;;;;;49.80;16.58;;;;;;;0.96;90.29;99423.44;5075567;28;20130;-68
2021/01/08 04:20:38;;;;;;;40.78;15.35;;;;;;;0.93;89.99;99423.38;5074907;28;20044;-68
2021/01/08 04:23:06;;;;;;;45.20;14.95;;;;;;;0.93;89.71;99418.34;5073906;28;20604;-68
2021/01/08 04:25:34;;;;;;;38.65;14.88;;;;;;;0.92;89.73;99418.28;5074957;28;20056;-68
2021/01/08 04:28:03;;;;;;;40.63;15.32;;;;;;;0.82;90.03;99408.72;5075415;28;20136;-68
2021/01/08 04:30:31;;;;;;;44.90;15.98;;;;;;;0.91;89.76;99424.13;5074700;28;20037;-68
2021/01/08 04:32:58;;;;;;;43.22;16.65;;;;;;;0.89;89.71;99414.00;5074778;28;20123;-68
2021/01/08 04:35:26;;;;;;;40.08;15.38;;;;;;;0.85;89.39;99409.69;5074691;28;20045;-68
2021/01/08 04:37:54;;;;;;;39.80;16.02;;;;;;;0.84;90.31;99407.97;5074654;28;20106;-68
2021/01/08 04:40:22;;;;;;;46.03;15.80;;;;;;;0.88;89.72;99414.84;5074528;28;20405;-68
2021/01/08 04:42:50;;;;;;;42.50;15.35;;;;;;;0.93;90.00;99407.44;5074596;28;20033;-68
2021/01/08 04:45:19;;;;;;;33.83;14.18;;;;;;;0.87;89.85;99402.19;5074493;28;20052;-68
2021/01/08 04:47:49;;;;;;;31.33;13.60;;;;;;;0.83;89.43;99406.28;5074313;28;20521;-68
2021/01/08 04:50:18;;;;;;;33.55;12.93;;;;;;;0.80;89.64;99405.31;5074549;28;20048;-68
2021/01/08 04:52:46;;;;;;;35.58;13.80;;;;;;;0.76;89.64;99413.56;5074391;28;20576;-69
2021/01/08 04:55:16;;;;;;;32.88;13.13;;;;;;;0.75;90.00;99411.84;5074279;28;20049;-68
2021/01/08 04:57:47;;;;;;;32.13;13.13;;;;;;;0.74;89.70;99420.19;5074839;28;20052;-68
2021/01/08 05:00:15;;;;;;;36.15;13.10;;;;;;;0.74;89.65;99416.03;5074234;28;20080;-68
2021/01/08 05:02:45;;;;;;;32.00;14.55;;;;;;;0.74;89.75;99421.06;5074466;28;20055;-68
2021/01/08 05:05:13;;;;;;;29.33;12.98;;;;;;;0.66;89.64;99429.97;5074213;28;20076;-68
2021/01/08 05:07:41;;;;;;;32.38;13.10;;;;;;;0.47;89.49;99405.06;5074056;28;20079;-68
2021/01/08 05:10:11;;;;;;;28.73;12.50;;;;;;;0.67;89.18;99430.00;5074025;28;20066;-68
2021/01/08 05:12:39;;;;;;;;;;;;;;;0.69;89.86;99427.59;5074457;28;20048;-68
2021/01/08 05:15:11;;;;;;;30.25;11.43;;;;;;;0.68;89.58;99435.91;5074003;28;19921;-68
2021/01/08 05:17:40;;;;;;;55.58;22.65;;;;;;;0.59;89.40;99435.59;5074248;28;20158;-68
2021/01/08 05:20:10;;;;;;;36.90;14.27;;;;;;;0.46;89.87;99431.81;5072762;28;20072;-68
2021/01/08 05:22:37;;;;;;;39.85;15.25;;;;;;;0.43;89.50;99433.38;5074179;28;20040;-68
2021/01/08 05:25:06;;;;;;;39.22;15.73;;;;;;;0.46;89.60;99436.81;5073824;28;20098;-68
2021/01/08 05:27:34;;;;;;;43.28;16.52;;;;;;;0.56;89.96;99435.47;5073703;28;20048;-68
2021/01/08 05:30:16;;;;;;;34.33;14.30;;;;;;;0.59;90.13;99435.59;5074020;28;20105;-68
2021/01/08 05:32:45;;;;;;;39.60;15.13;;;;;;;0.62;89.84;99425.66;5073250;28;20066;-68
2021/01/08 05:35:16;;;;;;;37.80;14.75;;;;;;;0.71;89.89;99420.94;5073726;28;20064;-69
2021/01/08 05:37:47;;;;;;;42.90;15.85;;;;;;;0.72;90.00;99422.63;5073696;28;20055;-68
2021/01/08 05:40:15;;;;;;;41.95;15.68;;;;;;;0.73;89.88;99426.00;5073743;28;20052;-68
2021/01/08 05:42:53;;;;;;;41.10;15.27;;;;;;;0.75;89.50;99420.25;5073670;28;20533;-68
2021/01/08 05:45:21;;;;;;;43.78;14.18;;;;;;;0.72;89.99;99421.81;5073666;28;20048;-68
2021/01/08 05:47:51;;;;;;;38.05;14.75;;;;;;;0.16;89.80;99362.13;5073641;28;20131;-68
2021/01/08 05:50:23;;;;;;;45.13;14.88;;;;;;;0.47;89.64;99425.13;5072319;28;20049;-68
2021/01/08 05:52:54;;;;;;;40.90;14.90;;;;;;;0.39;89.96;99416.47;5073579;28;20124;-67
2021/01/08 05:55:22;;;;;;;35.78;14.68;;;;;;;0.34;89.94;99418.81;5073817;28;20067;-68
2021/01/08 05:57:50;;;;;;;41.08;14.48;;;;;;;0.22;89.99;99387.41;5073743;28;20052;-68
2021/01/08 06:00:20;;;;;;;43.70;15.27;;;;;;;0.41;89.80;99422.38;5073402;28;20045;-68
2021/01/08 06:02:49;;;;;;;37.53;14.60;;;;;;;0.50;89.81;99420.22;5073473;28;20036;-68
2021/01/08 06:05:19;;;;;;;42.08;15.10;;;;;;;-0.14;89.87;99302.56;5073389;28;20494;-68
2021/01/08 06:07:54;;;;;;;41.70;13.93;;;;;;;0.62;89.77;99420.66;5073385;28;20051;-68
2021/01/08 06:10:26;;;;;;;34.75;14.70;;;;;;;0.60;90.49;99414.72;5073653;28;20048;-68
2021/01/08 06:12:55;;;;;;;44.15;16.52;;;;;;;0.70;90.29;99414.22;5073393;28;20452;-68
2021/01/08 06:15:25;;;;;;;40.80;14.25;;;;;;;0.71;90.44;99418.44;5073298;28;20386;-68
2021/01/08 06:17:54;;;;;;;46.63;14.70;;;;;;;0.75;90.21;99420.25;5073918;28;20095;-68
2021/01/08 06:20:22;;;;;;;33.93;10.57;;;;;;;0.73;90.03;99424.34;5073565;28;20076;-68
2021/01/08 06:22:51;;;;;;;39.72;15.93;;;;;;;0.66;90.48;99417.44;5073588;28;20346;-68
2021/01/08 06:25:20;;;;;;;42.90;15.07;;;;;;;0.72;90.53;99420.13;5073161;28;20055;-68
2021/01/08 06:27:54;;;;;;;35.80;14.05;;;;;;;0.68;89.99;99416.69;5073469;28;20054;-68
2021/01/08 06:30:26;;;;;;;45.53;16.35;;;;;;;0.62;90.21;99395.53;5073145;28;20393;-69
2021/01/08 06:33:02;;;;;;;40.60;15.48;;;;;;;0.72;90.14;99417.63;5073183;28;20044;-68
2021/01/08 06:35:32;;;;;;;36.85;13.57;;;;;;;0.58;89.88;99416.28;5073526;28;20045;-68
2021/01/08 06:38:02;;;;;;;36.70;13.63;;;;;;;0.50;89.85;99415.19;5073103;28;20080;-68
2021/01/08 06:40:41;;;;;;;36.92;13.35;;;;;;;0.53;90.36;99420.31;5073130;28;20521;-68
2021/01/08 06:43:19;;;;;;;34.85;14.20;;;;;;;0.67;90.05;99425.00;5073099;28;20120;-68
2021/01/08 06:45:54;;;;;;;34.88;13.50;;;;;;;0.71;90.40;99425.09;5075885;28;20109;-69
2021/01/08 06:48:25;;;;;;;32.92;13.40;;;;;;;0.64;90.36;99416.53;5076801;28;20044;-68
2021/01/08 06:50:55;;;;;;;42.03;14.18;;;;;;;0.53;90.08;99405.25;5076674;28;20043;-68
2021/01/08 06:53:26;;;;;;;39.60;14.70;;;;;;;0.52;90.00;99434.53;5076686;28;20098;-68
2021/01/08 06:55:58;;;;;;;35.78;14.02;;;;;;;0.58;90.06;99443.91;5076743;28;20059;-68
2021/01/08 06:58:36;;;;;;;35.78;13.15;;;;;;;0.71;90.26;99450.22;5076602;28;20038;-68
2021/01/08 07:01:07;;;;;;;35.55;15.18;;;;;;;0.75;90.42;99447.00;5076592;28;20041;-68
2021/01/08 07:03:35;;;;;;;36.17;14.00;;;;;;;0.64;90.46;99429.06;5076460;28;20390;-68
2021/01/08 07:06:04;;;;;;;38.55;13.32;;;;;;;0.83;90.03;99448.97;5076440;28;20052;-68
2021/01/08 07:08:33;;;;;;;39.28;14.50;;;;;;;0.84;90.08;99462.41;5076371;28;20090;-68
2021/01/08 07:11:03;;;;;;;35.67;12.57;;;;;;;0.80;90.33;99456.41;5076318;28;20398;-68
2021/01/08 07:13:31;;;;;;;34.15;13.35;;;;;;;0.77;90.31;99461.31;5076302;28;20123;-68
2021/01/08 07:15:59;;;;;;;41.88;14.57;;;;;;;0.71;89.89;99466.16;5075130;28;20044;-68
2021/01/08 07:18:28;;;;;;;38.25;14.52;;;;;;;0.57;90.06;99467.31;5076237;28;20118;-68
2021/01/08 07:20:58;;;;;;;37.55;14.10;;;;;;;0.57;89.92;99467.31;5076130;28;20398;-68
2021/01/08 07:23:44;;;;;;;32.78;12.63;;;;;;;0.44;89.87;99466.03;5076516;28;20056;-68
2021/01/08 07:26:18;;;;;;;34.38;13.18;;;;;;;0.39;90.36;99469.16;5076182;28;20048;-68
2021/01/08 07:28:54;;;;;;;38.83;14.45;;;;;;;0.52;90.17;99468.81;5076075;28;20119;-68
2021/01/08 07:31:32;;;;;;;35.10;13.02;;;;;;;0.56;90.12;99480.66;5075786;28;20055;-68
2021/01/08 07:34:02;;;;;;;33.85;13.93;;;;;;;0.55;90.36;99486.50;5076077;28;20051;-68
2021/01/08 07:36:33;;;;;;;36.42;14.75;;;;;;;0.58;90.19;99486.59;5075807;28;20071;-68
2021/01/08 07:39:05;;;;;;;37.20;15.38;;;;;;;0.56;90.25;99490.72;5075791;28;20045;-68
2021/01/08 07:41:35;;;;;;;40.72;15.73;;;;;;;0.71;90.65;99486.22;5075686;28;20041;-68
2021/01/08 07:44:30;;;;;;;32.47;14.10;;;;;;;0.76;90.49;99484.75;5075847;28;20048;-68
2021/01/08 07:47:19;;;;;;;37.03;13.30;;;;;;;0.78;90.03;99493.19;5075479;28;20060;-68
2021/01/08 07:50:13;;;;;;;33.90;13.25;;;;;;;0.73;90.21;99489.66;5074604;28;20058;-68
2021/01/08 07:52:44;;;;;;;33.05;13.93;;;;;;;0.64;90.32;99505.25;5091206;28;20044;-68
2021/01/08 07:55:33;;;;;;;32.92;12.65;;;;;;;0.59;90.47;99508.41;5075134;28;20052;-68
2021/01/08 07:58:06;;;;;;;35.05;12.75;;;;;;;0.61;90.51;99505.16;5075520;28;20052;-68
2021/01/08 08:00:34;;;;;;;32.50;11.45;;;;;;;0.67;90.52;99509.53;5075441;28;20047;-68
2021/01/08 08:03:02;;;;;;;25.80;11.63;;;;;;;0.66;90.15;99517.84;5075305;28;20045;-68
2021/01/08 08:05:31;;;;;;;28.95;11.52;;;;;;;0.73;90.34;99514.75;5075398;28;20037;-68
2021/01/08 08:08:00;;;;;;;28.90;11.85;;;;;;;0.71;90.72;99501.31;5075216;28;20047;-68
2021/01/08 08:10:31;;;;;;;29.67;11.77;;;;;;;0.83;90.54;99513.44;5075209;28;20414;-68
2021/01/08 08:12:59;;;;;;;34.72;12.93;;;;;;;0.80;90.05;99514.16;5075199;28;20107;-68
2021/01/08 08:15:30;;;;;;;31.77;13.35;;;;;;;0.87;90.02;99518.59;5075224;28;20048;-68
2021/01/08 08:18:09;;;;;;;22.77;9.15;;;;;;;0.94;90.09;99518.00;5075401;28;20509;-68
2021/01/08 08:20:37;;;;;;;24.98;9.38;;;;;;;0.96;90.13;99518.91;5075606;28;20043;-69
2021/01/08 08:23:14;;;;;;;32.13;11.93;;;;;;;0.81;89.95;99523.44;5075022;28;20049;-68
2021/01/08 08:25:46;;;;;;;31.33;12.45;;;;;;;0.74;89.89;99526.53;5075048;28;20059;-68
2021/01/08 08:28:15;;;;;;;32.15;12.70;;;;;;;0.80;90.30;99526.72;5074908;28;20048;-69
2021/01/08 08:30:51;;;;;;;32.45;12.75;;;;;;;0.69;90.25;99528.03;5074799;28;20052;-69
2021/01/08 08:33:25;;;;;;;40.25;13.23;;;;;;;0.76;90.31;99529.94;5074826;28;20067;-68
2021/01/08 08:35:53;;;;;;;33.17;12.48;;;;;;;0.81;90.28;99523.44;5075052;28;20072;-68
2021/01/08 08:38:21;;;;;;;31.17;12.27;;;;;;;0.85;90.32;99525.25;5074579;28;20033;-68
2021/01/08 08:40:50;;;;;;;37.17;12.80;;;;;;;0.66;89.83;99512.84;5074642;28;20036;-68
2021/01/08 08:43:24;;;;;;;31.45;11.70;;;;;;;0.79;90.40;99524.19;5074613;28;20127;-69
2021/01/08 08:45:57;;;;;;;29.77;12.63;;;;;;;0.89;90.01;99526.22;5074157;28;20045;-69
2021/01/08 08:48:31;;;;;;;35.35;13.77;;;;;;;0.82;90.41;99534.31;5075082;28;20504;-68
2021/01/08 08:50:59;;;;;;;33.22;12.60;;;;;;;0.84;90.13;99537.75;5073882;28;20412;-69
2021/01/08 08:53:27;;;;;;;29.70;12.32;;;;;;;0.74;89.52;99506.44;5074936;28;20600;-68
2021/01/08 08:56:12;;;;;;;33.33;13.10;;;;;;;1.05;89.63;99529.31;5074374;28;20048;-68
2021/01/08 08:58:45;;;;;;;25.17;11.32;;;;;;;1.14;89.90;99532.13;5074338;28;20098;-68
2021/01/08 09:01:14;;;;;;;27.27;10.70;;;;;;;1.03;89.56;99533.38;5074305;28;20044;-68
2021/01/08 09:04:04;;;;;;;27.23;10.40;;;;;;;1.16;89.88;99528.00;5074280;28;20135;-68
2021/01/08 09:06:36;;;;;;;33.00;12.60;;;;;;;0.93;89.36;99533.91;5083295;28;20040;-68
2021/01/08 09:09:17;;;;;;;31.38;12.35;;;;;;;1.02;89.55;99526.69;5080294;28;20122;-69
2021/01/08 09:12:05;;;;;;;29.40;11.88;;;;;;;1.10;88.96;99530.31;5083135;28;20122;-69
2021/01/08 09:14:48;;;;;;;28.77;11.07;;;;;;;1.11;88.97;99524.47;5084269;28;20064;-68
2021/01/08 09:17:20;;;;;;;37.58;12.73;;;;;;;1.20;89.14;99534.00;5074017;28;20057;-68
2021/01/08 09:19:53;;;;;;;25.55;12.05;;;;;;;1.11;88.90;99529.50;5079981;28;20115;-68
2021/01/08 09:22:21;;;;;;;29.02;11.52;;;;;;;0.87;88.93;99532.81;5077421;28;20044;-68
2021/01/08 09:24:50;;;;;;;34.17;13.40;;;;;;;0.98;88.65;99527.38;5073837;28;20406;-68
2021/01/08 09:27:19;;;;;;;32.10;13.05;;;;;;;0.97;88.71;99525.66;5073877;28;20041;-68
2021/01/08 09:29:47;;;;;;;27.75;12.15;;;;;;;1.03;89.08;99525.84;5073744;28;20440;-68
2021/01/08 09:32:30;;;;;;;26.88;10.85;;;;;;;1.10;88.71;99522.78;5073734;28;20040;-68
2021/01/08 09:35:04;;;;;;;29.92;12.60;;;;;;;1.16;88.76;99512.91;5073762;28;20044;-68
2021/01/08 09:37:41;;;;;;;27.65;11.23;;;;;;;1.06;88.65;99508.38;5073767;28;20051;-68
2021/01/08 09:40:14;;;;;;;27.55;11.85;;;;;;;0.85;88.93;99474.13;5073685;28;20051;-68
2021/01/08 09:42:47;;;;;;;27.45;12.45;;;;;;;1.14;88.59;99509.50;5073707;28;20078;-68
2021/01/08 09:45:24;;;;;;;24.95;10.32;;;;;;;1.03;88.37;99493.19;5073620;28;20052;-68
2021/01/08 09:47:54;;;;;;;30.50;12.18;;;;;;;0.98;88.61;99464.59;5073396;28;20075;-68
2021/01/08 09:50:26;;;;;;;28.73;12.35;;;;;;;1.33;88.03;99496.75;5073854;28;20398;-68
2021/01/08 09:52:58;;;;;;;27.70;12.88;;;;;;;1.57;88.45;99503.34;5073554;28;20460;-68
2021/01/08 09:55:27;;;;;;;28.20;12.02;;;;;;;1.36;87.82;99503.53;5073401;28;20041;-68
2021/01/08 09:58:00;;;;;;;30.02;13.10;;;;;;;1.42;88.30;99510.44;5073506;28;20077;-68
2021/01/08 10:00:31;;;;;;;31.05;12.80;;;;;;;1.57;88.56;99510.91;5073491;28;20053;-68
2021/01/08 10:03:17;;;;;;;25.02;11.25;;;;;;;1.15;87.96;99492.78;5078510;28;20486;-68
2021/01/08 10:05:45;;;;;;;27.70;11.77;;;;;;;1.11;87.85;99506.03;5093629;28;20481;-68
2021/01/08 10:08:20;;;;;;;25.73;11.63;;;;;;;0.93;87.19;99503.75;5083382;28;20082;-68
2021/01/08 10:10:48;;;;;;;30.67;12.13;;;;;;;0.76;87.26;99443.69;5090356;28;20055;-68
2021/01/08 10:13:19;;;;;;;35.50;13.90;;;;;;;1.29;87.75;99489.91;5078673;28;20049;-68
2021/01/08 10:15:49;;;;;;;31.85;12.43;;;;;;;1.42;88.10;99492.81;5073378;28;20072;-68
2021/01/08 10:18:22;;;;;;;30.25;13.30;;;;;;;1.54;87.67;99495.69;5073905;28;20048;-68
2021/01/08 10:20:51;;;;;;;29.33;12.57;;;;;;;1.56;87.54;99491.59;5085723;28;20477;-68
2021/01/08 10:23:23;;;;;;;25.30;12.27;;;;;;;1.54;87.57;99490.66;5097562;28;20044;-68
2021/01/08 10:26:10;;;;;;;33.65;14.10;;;;;;;1.55;87.65;99488.22;5097504;28;20485;-68
2021/01/08 10:28:51;;;;;;;30.17;12.57;;;;;;;1.58;87.01;99483.31;5097505;28;20055;-68
2021/01/08 10:31:21;;;;;;;30.30;13.48;;;;;;;1.86;87.10;99490.03;5097436;28;20463;-68
2021/01/08 10:33:49;;;;;;;31.85;13.73;;;;;;;1.92;87.43;99491.06;5097311;28;20111;-68
2021/01/08 10:36:18;;;;;;;27.88;13.05;;;;;;;1.95;86.25;99492.81;5085290;28;20064;-68
2021/01/08 10:38:49;;;;;;;28.08;12.68;;;;;;;1.98;86.06;99492.91;5076965;28;20044;-68
2021/01/08 10:41:17;;;;;;;26.08;12.60;;;;;;;1.76;86.47;99488.03;5076964;28;20046;-68
2021/01/08 10:43:45;;;;;;;26.98;13.48;;;;;;;1.55;85.87;99492.41;5076799;28;20546;-68
2021/01/08 10:46:15;;;;;;;28.00;13.05;;;;;;;1.31;85.80;99493.31;5076643;28;20114;-68
2021/01/08 10:48:43;;;;;;;34.17;14.25;;;;;;;1.28;86.47;99487.34;5081216;28;20054;-68
2021/01/08 10:51:11;;;;;;;31.13;12.73;;;;;;;1.38;86.24;99493.50;5095066;28;20046;-68
2021/01/08 10:53:39;;;;;;;32.22;13.23;;;;;;;1.28;86.07;99470.59;5087368;28;20102;-70
2021/01/08 10:56:26;;;;;;;30.80;13.20;;;;;;;1.51;86.06;99481.41;5084882;28;20040;-68
2021/01/08 10:58:57;;;;;;;38.58;14.80;;;;;;;1.66;86.47;99481.84;5076619;28;20556;-68
2021/01/08 11:01:26;;;;;;;35.40;13.65;;;;;;;1.77;85.72;99479.69;5078457;28;20123;-68
2021/01/08 11:03:54;;;;;;;33.90;13.85;;;;;;;1.69;86.01;99476.06;5076383;28;20044;-68
2021/01/08 11:06:23;;;;;;;29.77;13.55;;;;;;;1.73;86.16;99468.66;5089146;28;20570;-68
2021/01/08 11:08:54;;;;;;;30.83;13.32;;;;;;;1.71;85.87;99474.44;5077383;28;20048;-68
2021/01/08 11:11:24;;;;;;;31.97;13.80;;;;;;;1.50;86.18;99448.66;5076308;28;20033;-68
2021/01/08 11:14:04;;;;;;;31.40;13.60;;;;;;;1.72;86.03;99466.13;5095427;28;20048;-68
2021/01/08 11:16:33;;;;;;;33.25;13.90;;;;;;;1.83;85.77;99464.75;5096501;28;20040;-68
2021/01/08 11:19:02;;;;;;;34.70;14.13;;;;;;;1.84;85.65;99476.53;5096578;28;20055;-68
2021/01/08 11:21:31;;;;;;;31.33;13.73;;;;;;;1.67;85.59;99472.66;5096402;28;20052;-68
2021/01/08 11:23:59;;;;;;;30.15;14.07;;;;;;;1.64;85.80;99473.41;5096444;28;20064;-68
2021/01/08 11:26:27;;;;;;;30.25;12.52;;;;;;;1.69;86.22;99466.88;5096329;28;20044;-68
2021/01/08 11:28:55;;;;;;;30.55;13.45;;;;;;;1.71;86.00;99464.38;5096369;28;20048;-68
2021/01/08 11:31:34;;;;;;;36.00;12.95;;;;;;;1.78;86.63;99466.28;5095360;28;20069;-68
2021/01/08 11:34:02;;;;;;;31.23;13.27;;;;;;;1.81;85.79;99459.69;5096351;28;20060;-68
2021/01/08 11:36:30;;;;;;;34.05;13.45;;;;;;;1.65;86.10;99464.22;5096328;28;20074;-68
2021/01/08 11:38:59;;;;;;;24.13;10.70;;;;;;;1.56;85.73;99458.91;5096155;28;20047;-68
2021/01/08 11:41:30;;;;;;;27.05;12.43;;;;;;;1.53;85.75;99468.88;5079197;28;20053;-68
2021/01/08 11:44:01;;;;;;;30.83;13.13;;;;;;;1.57;86.08;99470.66;5075676;28;20056;-68